createdAt,value
2023-05-06T00:01:08.705Z,95.58
2023-05-06T00:03:35.616Z,96.82
2023-05-06T00:06:02.549Z,95.00
2023-05-06T00:08:29.222Z,95.70
2023-05-06T00:10:57.259Z,94.72
2023-05-06T00:13:23.989Z,96.16
2023-05-06T00:15:50.645Z,95.63
2023-05-06T00:18:17.349Z,95.52
2023-05-06T00:20:44.036Z,94.60
2023-05-06T00:23:10.720Z,96.03
2023-05-06T00:25:37.399Z,96.17
2023-05-06T00:28:05.692Z,94.96
2023-05-06T00:30:32.395Z,95.22
2023-05-06T00:32:59.194Z,93.77
2023-05-06T00:35:25.961Z,95.06
2023-05-06T00:37:56.417Z,94.72
2023-05-06T00:40:23.266Z,96.38
2023-05-06T00:42:50.218Z,95.80
2023-05-06T00:45:18.385Z,96.51
2023-05-06T00:47:45.137Z,95.08
2023-05-06T00:50:11.870Z,96.69
2023-05-06T00:52:38.562Z,95.68
2023-05-06T00:55:06.012Z,96.59
2023-05-06T00:57:32.722Z,96.13
2023-05-06T00:59:59.418Z,96.41
2023-05-06T01:02:36.469Z,96.47
2023-05-06T01:05:12.981Z,95.34
2023-05-06T01:07:42.304Z,95.46
2023-05-06T01:10:16.521Z,94.79
2023-05-06T01:12:46.387Z,96.76
2023-05-06T01:15:14.964Z,96.17
2023-05-06T01:17:44.949Z,96.28
2023-05-06T01:20:11.837Z,96.51
2023-05-06T01:22:38.742Z,95.58
2023-05-06T01:25:07.806Z,96.24
2023-05-06T01:27:34.739Z,96.13
2023-05-06T01:30:01.414Z,95.32
2023-05-06T01:32:36.233Z,96.96
2023-05-06T01:35:06.293Z,95.93
2023-05-06T01:37:37.759Z,96.26
2023-05-06T01:40:07.265Z,95.28
2023-05-06T01:42:34.042Z,95.75
2023-05-06T01:45:00.934Z,96.90
2023-05-06T01:47:27.609Z,96.57
2023-05-06T01:49:54.445Z,95.85
2023-05-06T01:52:21.224Z,96.46
2023-05-06T01:54:47.897Z,95.72
2023-05-06T01:57:15.991Z,95.14
2023-05-06T01:59:42.957Z,95.94
2023-05-06T02:02:09.730Z,95.10
2023-05-06T02:04:36.505Z,95.44
2023-05-06T02:07:03.800Z,96.16
2023-05-06T02:09:30.493Z,95.51
2023-05-06T02:11:57.252Z,95.26
2023-05-06T02:14:25.388Z,95.44
2023-05-06T02:16:52.086Z,96.33
2023-05-06T02:19:18.740Z,96.77
2023-05-06T02:21:45.459Z,96.58
2023-05-06T02:24:12.168Z,95.58
2023-05-06T02:26:38.825Z,94.77
2023-05-06T02:29:05.548Z,96.34
2023-05-06T02:31:33.681Z,96.90
2023-05-06T02:34:00.357Z,95.53
2023-05-06T02:36:27.124Z,96.08
2023-05-06T02:38:53.793Z,96.06
2023-05-06T02:41:20.462Z,96.68
2023-05-06T02:43:47.167Z,95.88
2023-05-06T02:46:13.931Z,95.97
2023-05-06T02:48:42.043Z,96.66
2023-05-06T02:51:08.745Z,96.72
2023-05-06T02:53:35.454Z,97.00
2023-05-06T02:56:02.148Z,96.40
2023-05-06T02:58:28.871Z,95.33
2023-05-06T03:00:55.575Z,96.46
2023-05-06T03:03:22.342Z,96.64
2023-05-06T03:05:50.406Z,95.70
2023-05-06T03:08:17.163Z,96.00
2023-05-06T03:10:43.821Z,96.06
2023-05-06T03:13:10.945Z,95.72
2023-05-06T03:15:37.677Z,95.05
2023-05-06T03:18:04.503Z,96.59
2023-05-06T03:20:31.199Z,96.14
2023-05-06T03:22:59.272Z,96.09
2023-05-06T03:25:25.926Z,96.60
2023-05-06T03:27:52.651Z,95.59
2023-05-06T03:30:19.608Z,96.37
2023-05-06T03:32:47.149Z,95.82
2023-05-06T03:35:13.970Z,96.16
2023-05-06T03:37:40.756Z,96.02
2023-05-06T03:40:09.822Z,95.57
2023-05-06T03:42:36.545Z,95.30
2023-05-06T03:45:03.584Z,95.26
2023-05-06T03:47:30.265Z,94.79
2023-05-06T03:49:57.044Z,94.33
2023-05-06T03:52:23.763Z,93.41
2023-05-06T03:54:50.413Z,93.28
2023-05-06T03:57:18.474Z,94.05
2023-05-06T03:59:45.131Z,92.88
2023-05-06T04:02:11.850Z,94.05
2023-05-06T04:04:38.631Z,94.02
2023-05-06T04:07:05.297Z,93.29
2023-05-06T04:09:32.039Z,93.55
2023-05-06T04:11:58.763Z,92.34
2023-05-06T04:14:26.879Z,92.87
2023-05-06T04:16:53.567Z,91.40
2023-05-06T04:19:20.808Z,91.59
2023-05-06T04:21:47.486Z,91.31
2023-05-06T04:24:14.161Z,91.06
2023-05-06T04:26:40.952Z,90.39
2023-05-06T04:29:07.692Z,89.30
2023-05-06T04:31:35.989Z,89.17
2023-05-06T04:34:02.806Z,88.99
2023-05-06T04:36:29.499Z,89.29
2023-05-06T04:38:56.200Z,88.15
2023-05-06T04:41:22.927Z,87.41
2023-05-06T04:43:49.629Z,87.80
2023-05-06T04:46:16.392Z,86.68
2023-05-06T04:48:44.556Z,85.90
2023-05-06T04:51:11.232Z,85.09
2023-05-06T04:53:37.986Z,86.37
2023-05-06T04:56:05.045Z,85.07
2023-05-06T04:58:31.720Z,85.92
2023-05-06T05:00:58.995Z,84.76
2023-05-06T05:03:25.914Z,83.72
2023-05-06T05:05:54.119Z,83.97
2023-05-06T05:08:20.786Z,84.51
2023-05-06T05:10:47.480Z,83.98
2023-05-06T05:13:14.276Z,82.85
2023-05-06T05:15:41.085Z,82.60
2023-05-06T05:18:07.838Z,80.70
2023-05-06T05:20:34.580Z,78.74
2023-05-06T05:23:02.629Z,78.79
2023-05-06T05:25:29.356Z,81.27
2023-05-06T05:27:56.031Z,81.77
2023-05-06T05:30:22.877Z,79.46
2023-05-06T05:32:49.724Z,77.86
2023-05-06T05:35:16.429Z,77.42
2023-05-06T05:37:43.155Z,77.90
2023-05-06T05:40:11.997Z,77.95
2023-05-06T05:42:39.220Z,76.23
2023-05-06T05:45:07.316Z,74.03
2023-05-06T05:47:34.193Z,73.48
2023-05-06T05:50:00.877Z,72.78
2023-05-06T05:52:27.569Z,70.25
2023-05-06T05:54:54.264Z,66.85
2023-05-06T05:57:22.320Z,66.51
2023-05-06T05:59:49.052Z,65.92
2023-05-06T06:02:16.653Z,68.76
2023-05-06T06:04:43.354Z,69.91
2023-05-06T06:07:10.072Z,66.40
2023-05-06T06:09:36.788Z,64.45
2023-05-06T06:12:03.744Z,64.76
2023-05-06T06:14:31.804Z,62.11
2023-05-06T06:16:58.590Z,62.60
2023-05-06T06:19:25.906Z,61.49
2023-05-06T06:21:52.611Z,62.98
2023-05-06T06:24:19.342Z,57.53
2023-05-06T06:26:46.037Z,55.51
2023-05-06T06:29:12.693Z,58.02
2023-05-06T06:31:41.017Z,57.37
2023-05-06T06:34:07.837Z,59.64
2023-05-06T06:36:34.518Z,58.54
2023-05-06T06:39:01.274Z,58.48
2023-05-06T06:41:27.969Z,61.24
2023-05-06T06:43:54.673Z,59.46
2023-05-06T06:46:21.535Z,56.12
2023-05-06T06:48:49.832Z,49.21
2023-05-06T06:51:16.513Z,53.88
2023-05-06T06:53:43.195Z,55.64
2023-05-06T06:56:10.336Z,59.99
2023-05-06T06:58:37.081Z,59.55
2023-05-06T07:01:04.011Z,61.82
2023-05-06T07:03:30.710Z,60.91
2023-05-06T07:05:58.743Z,59.34
2023-05-06T07:08:25.420Z,56.01
2023-05-06T07:10:52.119Z,57.66
2023-05-06T07:13:18.812Z,54.96
2023-05-06T07:15:45.542Z,55.25
2023-05-06T07:18:12.268Z,52.17
2023-05-06T07:20:39.073Z,46.62
2023-05-06T07:23:07.187Z,47.21
2023-05-06T07:25:33.903Z,46.26
2023-05-06T07:28:00.568Z,37.09
2023-05-06T07:30:27.531Z,43.88
2023-05-06T07:32:54.240Z,41.61
2023-05-06T07:35:20.952Z,43.40
2023-05-06T07:37:47.720Z,48.50
2023-05-06T07:40:15.831Z,52.58
2023-05-06T07:42:43.171Z,42.01
2023-05-06T07:45:10.958Z,49.69
2023-05-06T07:47:37.960Z,40.80
2023-05-06T07:50:05.323Z,37.95
2023-05-06T07:52:32.027Z,42.39
2023-05-06T07:54:58.728Z,45.98
2023-05-06T07:57:26.908Z,44.64
2023-05-06T07:59:54.282Z,39.61
2023-05-06T08:02:21.125Z,40.40
2023-05-06T08:04:49.491Z,37.55
2023-05-06T08:07:17.724Z,37.50
2023-05-06T08:09:44.404Z,35.31
2023-05-06T08:12:11.125Z,36.63
2023-05-06T08:14:39.297Z,45.28
2023-05-06T08:17:06.040Z,38.64
2023-05-06T08:19:32.696Z,39.03
2023-05-06T08:21:59.528Z,34.91
2023-05-06T08:24:26.269Z,41.60
2023-05-06T08:26:52.999Z,40.27
2023-05-06T08:29:19.730Z,37.89
2023-05-06T08:31:48.022Z,42.23
2023-05-06T08:34:14.754Z,37.81
2023-05-06T08:36:41.477Z,34.54
2023-05-06T08:39:08.134Z,34.12
2023-05-06T08:41:34.858Z,36.04
2023-05-06T08:44:01.549Z,35.79
2023-05-06T08:46:28.250Z,35.18
2023-05-06T08:48:56.436Z,41.65
2023-05-06T08:51:25.443Z,36.71
2023-05-06T08:53:52.747Z,34.61
2023-05-06T08:56:19.452Z,35.18
2023-05-06T08:58:46.195Z,33.93
2023-05-06T09:01:13.776Z,36.60
2023-05-06T09:03:40.623Z,38.05
2023-05-06T09:06:08.788Z,40.08
2023-05-06T09:08:35.469Z,40.56
2023-05-06T09:11:02.173Z,35.06
2023-05-06T09:13:28.946Z,35.74
2023-05-06T09:15:55.663Z,33.77
2023-05-06T09:18:22.439Z,34.87
2023-05-06T09:20:49.278Z,35.07
2023-05-06T09:23:17.729Z,33.24
2023-05-06T09:25:45.008Z,32.70
2023-05-06T09:28:12.450Z,34.93
2023-05-06T09:30:39.340Z,36.73
2023-05-06T09:33:06.287Z,34.93
2023-05-06T09:35:36.406Z,30.86
2023-05-06T09:38:04.774Z,35.22
2023-05-06T09:40:34.265Z,35.60
2023-05-06T09:43:00.973Z,30.58
2023-05-06T09:45:28.484Z,35.24
2023-05-06T09:47:55.198Z,34.36
2023-05-06T09:50:22.128Z,35.14
2023-05-06T09:52:49.067Z,31.96
2023-05-06T09:55:15.813Z,29.16
2023-05-06T09:57:43.969Z,36.46
2023-05-06T10:00:11.503Z,34.97
2023-05-06T10:02:38.734Z,31.52
2023-05-06T10:05:06.327Z,33.68
2023-05-06T10:07:33.184Z,37.16
2023-05-06T10:09:59.884Z,37.37
2023-05-06T10:12:26.618Z,40.12
2023-05-06T10:14:54.670Z,37.90
2023-05-06T10:17:23.860Z,36.01
2023-05-06T10:19:50.752Z,36.06
2023-05-06T10:22:22.534Z,36.26
2023-05-06T10:24:52.043Z,41.13
2023-05-06T10:27:18.825Z,38.95
2023-05-06T10:29:45.529Z,37.27
2023-05-06T10:32:13.685Z,37.40
2023-05-06T10:34:42.726Z,38.25
2023-05-06T10:37:09.400Z,40.47
2023-05-06T10:39:36.146Z,40.12
2023-05-06T10:42:02.951Z,35.84
2023-05-06T10:44:58.383Z,33.80
2023-05-06T10:47:26.549Z,33.45
2023-05-06T10:50:21.389Z,29.39
2023-05-06T10:52:50.490Z,29.44
2023-05-06T10:55:27.706Z,29.46
2023-05-06T10:57:54.885Z,26.12
2023-05-06T11:00:21.935Z,34.21
2023-05-06T11:02:55.788Z,35.68
2023-05-06T11:05:22.633Z,34.65
2023-05-06T11:07:50.050Z,35.26
2023-05-06T11:10:16.729Z,38.45
2023-05-06T11:12:47.537Z,37.57
2023-05-06T11:15:24.447Z,34.84
2023-05-06T11:17:52.823Z,33.47
2023-05-06T11:20:20.657Z,33.71
2023-05-06T11:22:47.439Z,33.43
2023-05-06T11:25:14.134Z,33.53
2023-05-06T11:27:43.233Z,31.82
2023-05-06T11:30:13.812Z,31.39
2023-05-06T11:32:41.109Z,29.78
2023-05-06T11:35:09.716Z,28.87
2023-05-06T11:37:36.457Z,30.36
2023-05-06T11:40:03.436Z,28.98
2023-05-06T11:42:30.120Z,33.14
2023-05-06T11:45:00.406Z,30.89
2023-05-06T11:47:27.105Z,30.87
2023-05-06T11:49:54.573Z,29.49
2023-05-06T11:52:22.675Z,29.04
2023-05-06T11:54:51.065Z,32.36
2023-05-06T11:57:19.305Z,30.88
2023-05-06T11:59:46.089Z,31.64
2023-05-06T12:02:13.452Z,32.32
2023-05-06T12:04:41.037Z,33.90
2023-05-06T12:07:08.555Z,33.51
2023-05-06T12:09:36.844Z,34.40
2023-05-06T12:12:03.915Z,34.82
2023-05-06T12:14:30.649Z,35.11
2023-05-06T12:16:57.348Z,36.16
2023-05-06T12:19:24.273Z,35.30
2023-05-06T12:21:51.067Z,37.91
2023-05-06T12:24:26.965Z,36.84
2023-05-06T12:26:55.092Z,37.42
2023-05-06T12:29:21.903Z,37.29
2023-05-06T12:31:48.686Z,37.61
2023-05-06T12:34:15.613Z,36.99
2023-05-06T12:36:42.981Z,37.05
2023-05-06T12:39:09.678Z,37.94
2023-05-06T12:41:38.284Z,38.22
2023-05-06T12:44:30.899Z,38.41
2023-05-06T12:46:57.615Z,37.87
2023-05-06T12:49:24.283Z,35.84
2023-05-06T12:52:05.967Z,36.36
2023-05-06T12:54:32.675Z,35.99
2023-05-06T12:56:59.352Z,37.03
2023-05-06T12:59:27.505Z,38.21
2023-05-06T13:01:54.207Z,38.92
2023-05-06T13:04:21.192Z,39.37
2023-05-06T13:06:47.945Z,39.56
2023-05-06T13:09:15.450Z,39.25
2023-05-06T13:11:42.318Z,37.50
2023-05-06T13:14:09.172Z,38.51
2023-05-06T13:16:37.320Z,37.38
2023-05-06T13:19:04.222Z,37.42
2023-05-06T13:21:30.935Z,36.61
2023-05-06T13:23:57.645Z,37.17
2023-05-06T13:26:24.373Z,37.03
2023-05-06T13:28:51.161Z,37.93
2023-05-06T13:31:17.862Z,37.54
2023-05-06T13:33:45.959Z,39.14
2023-05-06T13:36:12.675Z,38.47
2023-05-06T13:38:39.395Z,38.91
2023-05-06T13:41:06.899Z,39.85
2023-05-06T13:43:33.643Z,40.49
2023-05-06T13:46:00.331Z,40.35
2023-05-06T13:48:27.027Z,41.17
2023-05-06T13:50:55.192Z,39.92
2023-05-06T13:53:21.924Z,40.97
2023-05-06T13:55:48.647Z,40.86
2023-05-06T13:58:16.676Z,41.29
2023-05-06T14:00:43.430Z,41.76
2023-05-06T14:03:10.104Z,43.16
2023-05-06T14:05:36.812Z,43.95
2023-05-06T14:08:05.238Z,43.21
2023-05-06T14:10:31.949Z,43.22
2023-05-06T14:12:58.842Z,42.82
2023-05-06T14:15:25.538Z,42.37
2023-05-06T14:17:52.303Z,41.82
2023-05-06T14:20:19.184Z,43.25
2023-05-06T14:22:45.916Z,44.84
2023-05-06T14:25:14.523Z,44.92
2023-05-06T14:27:41.464Z,45.84
2023-05-06T14:30:09.836Z,46.76
2023-05-06T14:32:36.904Z,48.68
2023-05-06T14:35:04.004Z,50.29
2023-05-06T14:37:30.728Z,52.07
2023-05-06T14:39:57.419Z,52.53
2023-05-06T14:42:25.563Z,52.85
2023-05-06T14:44:52.244Z,53.32
2023-05-06T14:47:19.000Z,54.60
2023-05-06T14:49:45.774Z,54.69
2023-05-06T14:52:12.537Z,56.15
2023-05-06T14:54:39.214Z,56.34
2023-05-06T14:57:05.973Z,56.12
2023-05-06T14:59:34.064Z,56.58
2023-05-06T15:02:00.831Z,56.48
2023-05-06T15:04:27.570Z,56.20
2023-05-06T15:06:54.269Z,56.64
2023-05-06T15:09:20.951Z,56.46
2023-05-06T15:11:47.839Z,56.50
2023-05-06T15:14:14.534Z,57.62
2023-05-06T15:16:42.695Z,56.59
2023-05-06T15:19:09.443Z,57.13
2023-05-06T15:21:36.144Z,57.29
2023-05-06T15:24:03.016Z,57.49
2023-05-06T15:26:29.805Z,58.03
2023-05-06T15:28:56.501Z,59.34
2023-05-06T15:31:23.324Z,59.70
2023-05-06T15:33:51.536Z,58.58
2023-05-06T15:36:18.246Z,59.84
2023-05-06T15:39:00.716Z,63.83
2023-05-06T15:41:28.710Z,68.59
2023-05-06T15:43:55.906Z,70.28
2023-05-06T15:46:22.667Z,66.53
2023-05-06T15:49:00.155Z,70.52
2023-05-06T15:51:37.588Z,73.21
2023-05-06T15:54:04.544Z,71.90
2023-05-06T15:59:00.785Z,69.96
2023-05-06T16:01:57.394Z,70.07
2023-05-06T16:04:15.842Z,68.82
2023-05-06T16:06:42.671Z,66.48
2023-05-06T16:09:09.357Z,66.60
2023-05-06T16:11:36.099Z,65.83
2023-05-06T16:14:03.516Z,65.84
2023-05-06T16:16:30.277Z,63.87
2023-05-06T16:18:57.076Z,64.17
2023-05-06T16:21:25.249Z,63.35
2023-05-06T16:23:51.960Z,60.61
2023-05-06T16:26:18.640Z,59.16
2023-05-06T16:28:45.413Z,61.61
2023-05-06T16:31:12.160Z,60.25
2023-05-06T16:33:39.295Z,59.38
2023-05-06T16:36:07.680Z,61.69
2023-05-06T16:38:36.152Z,62.00
2023-05-06T16:41:02.895Z,61.60
2023-05-06T16:43:29.573Z,63.85
2023-05-06T16:45:56.297Z,63.83
2023-05-06T16:48:23.230Z,65.56
2023-05-06T16:50:49.977Z,66.47
2023-05-06T16:53:16.663Z,67.74
2023-05-06T16:55:47.769Z,67.80
2023-05-06T16:58:14.531Z,68.62
2023-05-06T17:00:41.843Z,68.87
2023-05-06T17:03:08.778Z,70.30
2023-05-06T17:05:35.537Z,70.52
2023-05-06T17:08:02.248Z,70.70
2023-05-06T17:10:29.054Z,69.67
2023-05-06T17:12:57.183Z,68.70
2023-05-06T17:15:23.967Z,69.16
2023-05-06T17:20:17.649Z,69.20
2023-05-06T17:22:44.414Z,70.27
2023-05-06T17:25:11.960Z,70.30
2023-05-06T17:27:38.686Z,71.20
2023-05-06T17:30:08.191Z,70.27
2023-05-06T17:32:34.988Z,71.11
2023-05-06T17:35:01.688Z,72.47
2023-05-06T17:37:28.452Z,73.56
2023-05-06T17:39:55.481Z,72.48
2023-05-06T17:42:22.317Z,73.39
2023-05-06T17:44:49.054Z,73.63
2023-05-06T17:47:17.195Z,74.31
2023-05-06T17:49:43.915Z,74.14
2023-05-06T17:52:10.603Z,74.56
2023-05-06T17:54:37.928Z,74.24
2023-05-06T17:57:04.680Z,76.07
2023-05-06T17:59:31.358Z,77.25
2023-05-06T18:01:58.259Z,78.37
2023-05-06T18:04:26.391Z,78.82
2023-05-06T18:06:53.100Z,80.38
2023-05-06T18:09:19.824Z,79.35
2023-05-06T18:11:46.538Z,79.52
2023-05-06T18:14:13.245Z,78.61
2023-05-06T18:16:40.098Z,79.32
2023-05-06T18:19:06.830Z,80.69
2023-05-06T18:21:34.882Z,81.64
2023-05-06T18:24:10.752Z,81.59
2023-05-06T18:26:45.406Z,81.71
2023-05-06T18:29:12.766Z,81.77
2023-05-06T18:31:39.573Z,81.45
2023-05-06T18:34:06.389Z,81.72
2023-05-06T18:36:34.607Z,81.39
2023-05-06T18:39:01.292Z,79.79
2023-05-06T18:41:27.999Z,80.90
2023-05-06T18:43:54.866Z,80.61
2023-05-06T18:46:21.578Z,82.66
2023-05-06T18:48:48.470Z,80.39
2023-05-06T18:51:15.825Z,80.91
2023-05-06T18:53:43.984Z,80.72
2023-05-06T18:56:10.724Z,81.56
2023-05-06T18:58:38.229Z,82.04
2023-05-06T19:01:05.592Z,83.00
2023-05-06T19:03:32.694Z,84.22
2023-05-06T19:05:59.470Z,84.56
2023-05-06T19:08:26.205Z,84.83
2023-05-06T19:10:54.493Z,84.34
2023-05-06T19:13:21.430Z,84.92
2023-05-06T19:15:48.159Z,85.70
2023-05-06T19:18:14.921Z,85.83
2023-05-06T19:20:41.692Z,86.32
2023-05-06T19:23:08.760Z,87.00
2023-05-06T19:25:36.156Z,86.37
2023-05-06T19:28:04.475Z,86.68
2023-05-06T19:30:31.920Z,87.02
2023-05-06T19:32:58.665Z,86.69
2023-05-06T19:35:25.414Z,85.19
2023-05-06T19:37:52.127Z,85.26
2023-05-06T19:40:19.076Z,85.78
2023-05-06T19:42:46.070Z,83.43
2023-05-06T19:45:16.792Z,83.14
2023-05-06T19:47:45.729Z,85.00
2023-05-06T19:50:12.940Z,85.11
2023-05-06T19:52:39.987Z,85.35
2023-05-06T19:55:07.579Z,85.53
2023-05-06T19:57:34.263Z,84.93
2023-05-06T20:00:00.953Z,83.45
2023-05-06T20:02:29.100Z,84.15
2023-05-06T20:04:55.849Z,84.18
2023-05-06T20:07:23.318Z,83.11
2023-05-06T20:09:50.082Z,84.16
2023-05-06T20:12:16.835Z,83.03
2023-05-06T20:14:43.463Z,82.25
2023-05-06T20:17:10.165Z,82.18
2023-05-06T20:19:38.214Z,82.02
2023-05-06T20:22:05.037Z,82.24
2023-05-06T20:24:31.701Z,82.15
2023-05-06T20:26:58.462Z,82.81
2023-05-06T20:29:25.246Z,81.92
2023-05-06T20:31:51.949Z,80.95
2023-05-06T20:34:18.695Z,80.71
2023-05-06T20:36:46.797Z,81.66
2023-05-06T20:39:13.463Z,80.18
2023-05-06T20:41:40.106Z,81.07
2023-05-06T20:44:06.783Z,82.64
2023-05-06T20:46:33.500Z,83.35
2023-05-06T20:49:00.227Z,83.34
2023-05-06T20:51:26.891Z,83.39
2023-05-06T20:53:54.938Z,82.74
2023-05-06T20:56:22.326Z,82.66
2023-05-06T20:58:49.012Z,82.43
2023-05-06T21:01:15.903Z,82.42
2023-05-06T21:03:42.721Z,82.19
2023-05-06T21:06:09.563Z,82.57
2023-05-06T21:08:36.262Z,81.62
2023-05-06T21:11:04.358Z,82.29
2023-05-06T21:13:31.052Z,82.98
2023-05-06T21:15:57.753Z,84.70
2023-05-06T21:18:24.547Z,84.27
2023-05-06T21:20:51.332Z,85.47
2023-05-06T21:23:18.004Z,85.49
2023-05-06T21:25:44.743Z,85.23
2023-05-06T21:28:12.773Z,85.98
2023-05-06T21:30:39.452Z,85.78
2023-05-06T21:33:06.315Z,86.02
2023-05-06T21:35:33.026Z,85.65
2023-05-06T21:37:59.907Z,86.03
2023-05-06T21:40:26.665Z,86.24
2023-05-06T21:42:53.298Z,86.81
2023-05-06T21:45:21.416Z,86.61
2023-05-06T21:47:48.102Z,87.15
2023-05-06T21:50:15.014Z,86.77
2023-05-06T21:52:41.717Z,86.73
2023-05-06T21:55:08.893Z,87.16
2023-05-06T21:57:35.782Z,87.52
2023-05-06T22:00:02.897Z,86.95
2023-05-06T22:02:31.150Z,85.45
2023-05-06T22:04:57.801Z,86.38
2023-05-06T22:07:24.474Z,87.19
2023-05-06T22:09:51.261Z,87.60
2023-05-06T22:12:17.914Z,89.37
2023-05-06T22:14:44.571Z,89.82
2023-05-06T22:17:11.259Z,89.38
2023-05-06T22:19:39.569Z,88.03
2023-05-06T22:22:06.724Z,88.07
2023-05-06T22:24:33.439Z,88.25
2023-05-06T22:27:00.173Z,87.36
2023-05-06T22:29:26.854Z,90.07
2023-05-06T22:31:53.594Z,89.93
2023-05-06T22:34:20.493Z,89.31
2023-05-06T22:36:48.560Z,89.88
2023-05-06T22:39:15.278Z,90.08
2023-05-06T22:41:41.971Z,90.27
2023-05-06T22:44:08.664Z,91.00
2023-05-06T22:46:35.391Z,92.84
2023-05-06T22:49:02.111Z,93.24
2023-05-06T22:51:28.782Z,90.80
2023-05-06T22:53:56.865Z,87.60
2023-05-06T22:56:23.612Z,86.06
2023-05-06T22:58:50.307Z,88.71
2023-05-06T23:01:17.017Z,89.76
2023-05-06T23:03:43.750Z,91.03
2023-05-06T23:06:10.446Z,92.72
2023-05-06T23:08:37.195Z,92.30
2023-05-06T23:11:05.362Z,93.50
2023-05-06T23:13:32.054Z,95.08
2023-05-06T23:15:58.754Z,95.19
2023-05-06T23:18:25.429Z,94.69
2023-05-06T23:20:52.250Z,94.75
2023-05-06T23:23:19.019Z,94.84
2023-05-06T23:25:45.667Z,95.59
2023-05-06T23:28:13.751Z,95.24
2023-05-06T23:30:40.435Z,95.00
2023-05-06T23:33:07.239Z,95.27
2023-05-06T23:35:33.927Z,96.32
2023-05-06T23:38:00.693Z,96.06
2023-05-06T23:40:27.406Z,96.24
2023-05-06T23:42:54.092Z,95.64
2023-05-06T23:45:22.164Z,95.59
2023-05-06T23:47:48.955Z,95.54
2023-05-06T23:50:15.785Z,97.42
2023-05-06T23:52:42.511Z,96.97
2023-05-06T23:55:09.855Z,98.43
2023-05-06T23:57:36.684Z,98.41
